This is the latest recevied weather packets stored in our database for station/object KB1RMA-13. If no packets are shown the sender has not sent any weather packets the latest 10 day(s).
| Time | Temp. | Humidity | Pressure | Rain* | Wind** | Luminosity | Snow |
|---|---|---|---|---|---|---|---|
| 1777905469 | 17.78° C | 41% | 1009.3 hPa | 0 mm | - | 286 W/m² | - |
| 1777905166 | 17.78° C | 40% | 1009.1 hPa | 0 mm | - | 106 W/m² | - |
| 1777904863 | 17.22° C | 41% | 1009.3 hPa | 0 mm | - | 749 W/m² | - |
| 1777904560 | 17.22° C | 40% | 1009.1 hPa | 0 mm | - | 101 W/m² | - |
| 1777904257 | 17.22° C | 41% | 1009.4 hPa | 0 mm | - | 504 W/m² | - |
| 1777903955 | 16.67° C | 41% | 1009.2 hPa | 0 mm | - | 595 W/m² | - |
| 1777903651 | 16.67° C | 41% | 1009.3 hPa | 0 mm | - | 703 W/m² | - |
| 1777903347 | 16.67° C | 42% | 1009.2 hPa | 0 mm | - | 99 W/m² | - |
| 1777903044 | 16.67° C | 42% | 1009.4 hPa | 0 mm | - | 682 W/m² | - |
| 1777902740 | 16.67° C | 42% | 1009.3 hPa | 0 mm | - | 341 W/m² | - |
| 1777902438 | 16.67° C | 41% | 1009.5 hPa | 0 mm | - | 651 W/m² | - |
| 1777902134 | 16.67° C | 45% | 1009.6 hPa | 0 mm | - | 457 W/m² | - |
| 1777901833 | 16.11° C | 43% | 1009.6 hPa | 0 mm | - | 331 W/m² | - |
| 1777901530 | 16.11° C | 43% | 1009.6 hPa | 0 mm | - | 105 W/m² | - |
| 1777901227 | 16.11° C | 42% | 1009.7 hPa | 0 mm | - | 101 W/m² | - |
| 1777900924 | 15.56° C | 45% | 1009.8 hPa | 0 mm | - | 97 W/m² | - |
| 1777900622 | 15° C | 44% | 1009.8 hPa | 0 mm | - | 558 W/m² | - |
| 1777900318 | 15° C | 46% | 1009.9 hPa | 0 mm | - | 553 W/m² | - |
| 1777900015 | 15° C | 45% | 1009.9 hPa | 0 mm | - | 531 W/m² | - |
| 1777899711 | 15.56° C | 45% | 1010.2 hPa | 0 mm | - | 517 W/m² | - |
| 1777899409 | 14.44° C | 47% | 1009.9 hPa | 0 mm | - | 91 W/m² | - |
| 1777899107 | 14.44° C | 46% | 1010.2 hPa | 0 mm | - | 91 W/m² | - |
| 1777898804 | 13.89° C | 48% | 1010.2 hPa | 0 mm | - | 469 W/m² | - |
| 1777898501 | 13.89° C | 46% | 1010.5 hPa | 0 mm | - | 447 W/m² | - |
| 1777898199 | 13.89° C | 48% | 1010.3 hPa | 0 mm | - | 433 W/m² | - |
* Rain latest hour (hover to see other rain measurements)
** Current wind speed in m/s (hover to see current wind gust speed)